createdAt,value
2023-05-02T00:02:05.561Z,3.37
2023-05-02T00:05:08.669Z,3.58
2023-05-02T00:08:13.586Z,3.50
2023-05-02T00:11:16.215Z,3.27
2023-05-02T00:14:27.070Z,3.92
2023-05-02T00:17:29.582Z,3.50
2023-05-02T00:20:31.316Z,3.45
2023-05-02T00:23:33.758Z,3.40
2023-05-02T00:26:39.097Z,3.17
2023-05-02T00:29:44.642Z,3.30
2023-05-02T00:32:47.770Z,3.20
2023-05-02T00:35:53.929Z,3.58
2023-05-02T00:38:56.787Z,3.25
2023-05-02T00:41:59.937Z,3.17
2023-05-02T00:45:04.633Z,3.10
2023-05-02T00:48:09.264Z,3.38
2023-05-02T00:51:13.357Z,2.97
2023-05-02T00:54:17.628Z,3.22
2023-05-02T00:57:19.237Z,3.13
2023-05-02T01:00:21.719Z,3.30
2023-05-02T01:03:32.258Z,3.20
2023-05-02T01:07:06.001Z,3.20
2023-05-02T01:10:20.193Z,3.00
2023-05-02T01:13:29.285Z,3.00
2023-05-02T01:16:33.909Z,3.30
2023-05-02T01:19:43.184Z,3.10
2023-05-02T01:22:47.552Z,2.85
2023-05-02T01:26:11.681Z,3.03
2023-05-02T01:29:23.438Z,3.00
2023-05-02T01:32:27.702Z,3.30
2023-05-02T01:35:33.845Z,3.20
2023-05-02T01:38:39.607Z,3.03
2023-05-02T01:41:45.257Z,3.30
2023-05-02T01:44:54.117Z,3.03
2023-05-02T01:47:58.133Z,2.90
2023-05-02T01:51:03.978Z,2.70
2023-05-02T01:54:09.048Z,3.17
2023-05-02T01:57:13.024Z,2.75
2023-05-02T02:00:19.673Z,2.80
2023-05-02T02:03:22.924Z,2.90
2023-05-02T02:06:27.528Z,2.87
2023-05-02T02:09:33.978Z,2.90
2023-05-02T02:12:42.628Z,2.80
2023-05-02T02:15:49.904Z,2.97
2023-05-02T02:18:57.332Z,2.60
2023-05-02T02:22:04.574Z,3.10
2023-05-02T02:25:11.084Z,2.90
2023-05-02T02:28:13.128Z,3.40
2023-05-02T02:31:14.929Z,2.88
2023-05-02T02:34:19.724Z,3.20
2023-05-02T02:37:31.532Z,2.87
2023-05-02T02:41:00.993Z,3.00
2023-05-02T02:44:24.281Z,3.30
2023-05-02T02:47:32.253Z,3.20
2023-05-02T02:50:55.934Z,3.53
2023-05-02T02:54:02.366Z,3.17
2023-05-02T02:58:03.646Z,3.40
2023-05-02T03:01:14.116Z,3.30
2023-05-02T03:04:19.862Z,3.55
2023-05-02T03:07:24.617Z,3.47
2023-05-02T03:10:27.023Z,3.50
2023-05-02T03:16:48.568Z,3.45
2023-05-02T03:19:50.432Z,3.57
2023-05-02T03:22:55.572Z,3.63
2023-05-02T03:26:00.313Z,3.90
2023-05-02T03:29:02.020Z,3.88
2023-05-02T03:32:13.125Z,3.72
2023-05-02T03:35:18.561Z,3.92
2023-05-02T03:38:22.322Z,4.28
2023-05-02T03:41:25.425Z,4.20
2023-05-02T03:44:34.742Z,4.30
2023-05-02T03:47:36.810Z,4.38
2023-05-02T03:50:39.281Z,4.27
2023-05-02T03:53:41.044Z,4.50
2023-05-02T03:56:44.545Z,4.47
2023-05-02T03:59:58.996Z,4.70
2023-05-02T04:03:03.234Z,4.18
2023-05-02T04:06:07.546Z,4.28
2023-05-02T04:09:10.340Z,4.05
2023-05-02T04:12:22.345Z,4.73
2023-05-02T04:15:26.295Z,4.43
2023-05-02T04:18:29.547Z,4.47
2023-05-02T04:21:33.149Z,4.47
2023-05-02T04:24:37.210Z,4.50
2023-05-02T04:27:39.035Z,4.60
2023-05-02T04:30:45.719Z,4.35
2023-05-02T04:33:49.476Z,4.13
2023-05-02T04:36:55.398Z,4.68
2023-05-02T04:40:01.712Z,4.50
2023-05-02T04:43:05.867Z,5.03
2023-05-02T04:46:18.197Z,5.47
2023-05-02T04:49:20.926Z,5.07
2023-05-02T04:52:22.734Z,5.00
2023-05-02T04:55:24.428Z,5.38
2023-05-02T04:58:26.089Z,5.25
2023-05-02T05:01:34.092Z,5.40
2023-05-02T05:04:38.215Z,5.35
2023-05-02T05:07:41.006Z,5.63
2023-05-02T05:10:43.934Z,5.97
2023-05-02T05:13:47.397Z,5.90
2023-05-02T05:16:50.289Z,6.18
2023-05-02T05:19:52.904Z,6.35
2023-05-02T05:22:55.325Z,5.40
2023-05-02T05:26:09.022Z,6.43
2023-05-02T05:29:11.678Z,6.40
2023-05-02T05:32:17.689Z,6.15
2023-05-02T05:35:20.772Z,6.38
2023-05-02T05:38:25.016Z,6.18
2023-05-02T05:41:27.155Z,6.38
2023-05-02T05:44:36.807Z,6.57
2023-05-02T05:47:39.493Z,6.88
2023-05-02T05:50:42.527Z,6.47
2023-05-02T05:53:45.313Z,6.57
2023-05-02T05:56:50.101Z,6.47
2023-05-02T05:59:54.679Z,6.82
2023-05-02T06:02:58.963Z,6.50
2023-05-02T06:06:04.557Z,6.22
2023-05-02T06:09:07.500Z,6.80
2023-05-02T06:12:09.286Z,6.93
2023-05-02T06:15:13.057Z,6.70
2023-05-02T06:18:16.366Z,6.80
2023-05-02T06:21:18.695Z,7.35
2023-05-02T06:24:21.510Z,6.80
2023-05-02T06:27:23.559Z,7.68
2023-05-02T06:30:27.402Z,7.28
2023-05-02T06:33:34.300Z,7.30
2023-05-02T06:36:37.024Z,7.00
2023-05-02T06:39:39.920Z,6.80
2023-05-02T06:42:42.461Z,6.90
2023-05-02T06:45:45.825Z,7.20
2023-05-02T06:48:50.552Z,7.10
2023-05-02T06:51:52.756Z,7.75
2023-05-02T06:54:54.854Z,6.53
2023-05-02T06:57:59.282Z,7.20
2023-05-02T07:01:01.381Z,6.68
2023-05-02T07:04:08.195Z,6.90
2023-05-02T07:07:10.341Z,7.38
2023-05-02T07:10:13.698Z,7.18
2023-05-02T07:13:17.348Z,6.95
2023-05-02T07:16:20.444Z,6.70
2023-05-02T07:19:23.451Z,7.40
2023-05-02T07:22:25.400Z,7.00
2023-05-02T07:25:31.012Z,8.00
2023-05-02T07:28:35.129Z,7.97
2023-05-02T07:31:39.314Z,7.80
2023-05-02T07:34:44.418Z,7.57
2023-05-02T07:37:47.820Z,7.90
2023-05-02T07:40:52.282Z,7.53
2023-05-02T07:43:59.546Z,7.88
2023-05-02T07:47:05.364Z,7.60
2023-05-02T07:50:10.810Z,7.78
2023-05-02T07:53:15.621Z,7.72
2023-05-02T07:56:21.754Z,8.33
2023-05-02T07:59:24.468Z,8.15
2023-05-02T08:02:30.027Z,8.88
2023-05-02T08:05:35.331Z,8.10
2023-05-02T08:08:40.201Z,8.15
2023-05-02T08:11:43.969Z,8.10
2023-05-02T08:14:48.294Z,7.80
2023-05-02T08:17:53.098Z,8.03
2023-05-02T08:20:58.668Z,8.30
2023-05-02T08:24:01.258Z,7.80
2023-05-02T08:27:04.550Z,8.20
2023-05-02T08:30:09.017Z,8.18
2023-05-02T08:33:17.432Z,8.15
2023-05-02T08:36:22.339Z,8.10
2023-05-02T08:39:26.859Z,8.30
2023-05-02T08:42:33.564Z,8.48
2023-05-02T08:45:41.187Z,7.88
2023-05-02T08:48:45.123Z,8.05
2023-05-02T08:51:52.053Z,7.87
2023-05-02T08:54:54.855Z,7.93
2023-05-02T08:57:58.669Z,8.30
2023-05-02T09:01:05.273Z,7.68
2023-05-02T09:04:07.423Z,7.90
2023-05-02T09:07:10.840Z,7.43
2023-05-02T09:10:14.269Z,8.20
2023-05-02T09:13:36.446Z,7.75
2023-05-02T09:16:40.672Z,7.83
2023-05-02T09:19:42.719Z,8.00
2023-05-02T09:22:52.793Z,7.63
2023-05-02T09:25:54.758Z,7.97
2023-05-02T09:28:58.241Z,8.27
2023-05-02T09:32:00.443Z,8.23
2023-05-02T09:35:07.110Z,8.10
2023-05-02T09:38:20.240Z,8.43
2023-05-02T09:41:23.469Z,8.20
2023-05-02T09:44:27.735Z,8.10
2023-05-02T09:47:30.989Z,8.40
2023-05-02T09:50:35.124Z,8.90
2023-05-02T09:53:45.523Z,9.30
2023-05-02T09:56:57.414Z,8.02
2023-05-02T10:00:00.381Z,8.67
2023-05-02T10:03:06.950Z,8.95
2023-05-02T10:06:10.784Z,9.43
2023-05-02T10:09:23.838Z,8.90
2023-05-02T10:12:28.357Z,9.23
2023-05-02T10:15:32.637Z,9.20
2023-05-02T10:18:58.923Z,9.30
2023-05-02T10:22:03.214Z,9.13
2023-05-02T10:25:07.340Z,8.93
2023-05-02T10:28:10.518Z,9.70
2023-05-02T10:31:13.769Z,9.23
2023-05-02T10:34:19.510Z,8.90
2023-05-02T10:37:25.023Z,9.40
2023-05-02T10:40:28.753Z,9.43
2023-05-02T10:43:41.234Z,9.32
2023-05-02T10:46:44.693Z,9.90
2023-05-02T10:49:58.185Z,9.23
2023-05-02T10:53:25.866Z,9.18
2023-05-02T10:56:29.309Z,9.45
2023-05-02T10:59:41.672Z,10.00
2023-05-02T11:02:45.065Z,9.63
2023-05-02T11:06:09.863Z,9.50
2023-05-02T11:09:27.287Z,9.35
2023-05-02T11:12:54.882Z,9.40
2023-05-02T11:15:57.349Z,9.23
2023-05-02T11:19:02.102Z,10.10
2023-05-02T11:22:19.271Z,7.82
2023-05-02T11:25:38.667Z,7.43
2023-05-02T11:28:48.127Z,7.63
2023-05-02T11:31:55.721Z,8.37
2023-05-02T11:34:58.239Z,8.93
2023-05-02T11:38:03.806Z,9.10
2023-05-02T11:41:06.080Z,8.45
2023-05-02T11:44:07.830Z,8.40
2023-05-02T11:47:10.065Z,7.30
2023-05-02T11:50:13.690Z,7.80
2023-05-02T11:53:18.311Z,7.70
2023-05-02T11:56:29.169Z,7.30
2023-05-02T11:59:31.419Z,7.33
2023-05-02T12:02:37.387Z,7.00
2023-05-02T12:05:40.848Z,7.72
2023-05-02T12:09:27.631Z,7.65
2023-05-02T12:12:29.723Z,7.77
2023-05-02T12:15:39.425Z,6.90
2023-05-02T12:18:42.768Z,7.57
2023-05-02T12:21:44.857Z,7.78
2023-05-02T12:24:49.280Z,7.82
2023-05-02T12:28:06.060Z,6.50
2023-05-02T12:31:11.617Z,6.68
2023-05-02T12:34:33.757Z,6.70
2023-05-02T12:37:39.056Z,6.25
2023-05-02T12:40:58.976Z,5.50
2023-05-02T12:44:01.635Z,5.95
2023-05-02T12:47:03.984Z,5.82
2023-05-02T12:50:06.478Z,5.47
2023-05-02T12:53:08.957Z,4.97
2023-05-02T12:56:11.784Z,4.55
2023-05-02T12:59:31.151Z,5.05
2023-05-02T13:02:33.300Z,5.00
2023-05-02T13:05:36.996Z,5.13
2023-05-02T13:08:41.369Z,5.00
2023-05-02T13:11:44.543Z,4.50
2023-05-02T13:14:46.817Z,4.80
2023-05-02T13:17:50.610Z,4.75
2023-05-02T13:20:52.877Z,5.03
2023-05-02T13:23:56.898Z,5.20
2023-05-02T13:26:58.952Z,5.30
2023-05-02T13:30:05.542Z,5.03
2023-05-02T13:33:09.527Z,4.70
2023-05-02T13:36:13.054Z,5.30
2023-05-02T13:39:15.562Z,5.07
2023-05-02T13:42:17.192Z,4.60
2023-05-02T13:45:19.301Z,5.03
2023-05-02T13:48:23.361Z,5.10
2023-05-02T13:51:27.628Z,4.63
2023-05-02T13:54:29.283Z,4.53
2023-05-02T13:57:30.866Z,4.25
2023-05-02T14:00:36.274Z,4.55
2023-05-02T14:03:41.833Z,4.10
2023-05-02T14:06:45.699Z,4.00
2023-05-02T14:09:49.680Z,3.80
2023-05-02T14:12:53.140Z,3.70
2023-05-02T14:15:56.463Z,3.88
2023-05-02T14:18:59.423Z,3.83
2023-05-02T14:22:01.484Z,4.20
2023-05-02T14:25:05.932Z,4.13
2023-05-02T14:28:08.638Z,3.90
2023-05-02T14:31:10.474Z,4.32
2023-05-02T14:34:13.259Z,3.80
2023-05-02T14:37:15.941Z,4.20
2023-05-02T14:40:18.160Z,4.30
2023-05-02T14:43:23.602Z,4.32
2023-05-02T14:46:25.431Z,5.10
2023-05-02T14:49:28.548Z,5.03
2023-05-02T14:52:30.194Z,4.78
2023-05-02T14:55:36.905Z,5.00
2023-05-02T14:58:38.840Z,5.10
2023-05-02T15:01:43.126Z,4.90
2023-05-02T15:04:45.581Z,4.50
2023-05-02T15:07:48.149Z,3.70
2023-05-02T15:10:51.116Z,3.70
2023-05-02T15:13:54.783Z,4.18
2023-05-02T15:16:59.126Z,3.90
2023-05-02T15:20:02.243Z,4.00
2023-05-02T15:23:04.983Z,3.70
2023-05-02T15:26:07.056Z,4.00
2023-05-02T15:29:11.682Z,3.70
2023-05-02T15:32:14.169Z,3.38
2023-05-02T15:35:17.465Z,3.45
2023-05-02T15:38:20.701Z,3.40
2023-05-02T15:41:22.768Z,4.00
2023-05-02T15:44:26.198Z,4.00
2023-05-02T15:47:27.960Z,3.75
2023-05-02T15:50:32.108Z,4.30
2023-05-02T15:53:34.667Z,4.60
2023-05-02T15:56:36.753Z,4.65
2023-05-02T15:59:39.448Z,5.00
2023-05-02T16:02:43.782Z,5.00
2023-05-02T16:05:46.738Z,4.90
2023-05-02T16:08:49.229Z,4.60
2023-05-02T16:11:51.499Z,4.05
2023-05-02T16:14:53.219Z,4.10
2023-05-02T16:17:56.479Z,4.13
2023-05-02T16:21:00.068Z,4.20
2023-05-02T16:24:02.231Z,4.32
2023-05-02T16:27:03.901Z,3.75
2023-05-02T16:30:06.848Z,3.75
2023-05-02T16:33:08.608Z,3.90
2023-05-02T16:36:10.831Z,4.43
2023-05-02T16:39:12.886Z,4.20
2023-05-02T16:42:14.472Z,4.35
2023-05-02T16:45:16.722Z,4.40
2023-05-02T16:48:19.441Z,4.43
2023-05-02T16:51:21.577Z,4.20
2023-05-02T16:54:23.172Z,4.30
2023-05-02T16:57:25.296Z,4.35
2023-05-02T17:00:27.097Z,4.50
2023-05-02T17:03:29.814Z,4.17
2023-05-02T17:06:32.341Z,4.10
2023-05-02T17:09:37.088Z,4.35
2023-05-02T17:12:38.923Z,4.40
2023-05-02T17:15:41.200Z,4.20
2023-05-02T17:18:43.367Z,4.18
2023-05-02T17:21:45.677Z,4.20
2023-05-02T17:24:51.212Z,4.68
2023-05-02T17:27:52.967Z,4.20
2023-05-02T17:30:56.226Z,4.05
2023-05-02T17:33:58.111Z,4.40
2023-05-02T17:37:06.612Z,4.88
2023-05-02T17:40:09.525Z,5.77
2023-05-02T17:43:11.195Z,5.80
2023-05-02T17:46:14.727Z,4.85
2023-05-02T17:49:18.428Z,4.60
2023-05-02T17:52:21.814Z,4.80
2023-05-02T17:55:23.590Z,4.53
2023-05-02T17:58:25.746Z,5.55
2023-05-02T18:01:27.510Z,8.75
2023-05-02T18:04:29.253Z,5.90
2023-05-02T18:07:31.544Z,6.05
2023-05-02T18:10:37.973Z,5.18
2023-05-02T18:13:39.862Z,6.03
2023-05-02T18:16:46.918Z,6.43
2023-05-02T18:19:50.342Z,5.20
2023-05-02T18:22:52.640Z,4.90
2023-05-02T18:25:55.640Z,6.10
2023-05-02T18:28:57.881Z,5.37
2023-05-02T18:31:59.595Z,5.10
2023-05-02T18:35:02.707Z,5.88
2023-05-02T18:38:12.916Z,5.82
2023-05-02T18:41:15.114Z,5.60
2023-05-02T18:44:16.724Z,6.22
2023-05-02T18:47:19.727Z,8.40
2023-05-02T18:50:22.086Z,9.25
2023-05-02T18:53:26.198Z,5.80
2023-05-02T18:56:28.714Z,5.70
2023-05-02T18:59:31.292Z,5.50
2023-05-02T19:02:33.619Z,5.40
2023-05-02T19:05:36.254Z,5.13
2023-05-02T19:08:40.159Z,5.20
2023-05-02T19:11:43.199Z,5.35
2023-05-02T19:14:45.916Z,5.97
2023-05-02T19:17:50.600Z,9.27
2023-05-02T19:20:52.560Z,10.55
2023-05-02T19:23:56.463Z,6.63
2023-05-02T19:27:00.177Z,8.10
2023-05-02T19:30:02.028Z,9.80
2023-05-02T19:33:03.769Z,7.50
2023-05-02T19:36:07.808Z,10.98
2023-05-02T19:39:11.372Z,8.15
2023-05-02T19:42:13.652Z,6.70
2023-05-02T19:45:15.991Z,8.80
2023-05-02T19:48:18.306Z,10.97
2023-05-02T19:51:25.706Z,8.40
2023-05-02T19:54:28.396Z,5.50
2023-05-02T19:57:30.075Z,4.73
2023-05-02T20:00:32.232Z,4.45
2023-05-02T20:03:35.161Z,4.65
2023-05-02T20:06:37.215Z,5.10
2023-05-02T20:09:39.807Z,4.55
2023-05-02T20:12:44.850Z,4.65
2023-05-02T20:15:50.144Z,5.10
2023-05-02T20:18:52.950Z,5.50
2023-05-02T20:21:56.209Z,5.40
2023-05-02T20:24:57.808Z,6.18
2023-05-02T20:27:59.873Z,5.97
2023-05-02T20:31:02.762Z,5.57
2023-05-02T20:34:04.583Z,5.82
2023-05-02T20:37:06.957Z,5.68
2023-05-02T20:40:10.172Z,5.80
2023-05-02T20:43:12.576Z,6.63
2023-05-02T20:46:20.064Z,7.35
2023-05-02T20:49:22.610Z,8.60
2023-05-02T20:52:24.696Z,9.45
2023-05-02T20:55:26.853Z,8.93
2023-05-02T20:58:28.430Z,8.30
2023-05-02T21:01:30.057Z,7.07
2023-05-02T21:04:33.695Z,7.28
2023-05-02T21:07:36.667Z,7.78
2023-05-02T21:10:38.237Z,7.55
2023-05-02T21:13:40.747Z,6.75
2023-05-02T21:16:43.001Z,7.72
2023-05-02T21:19:45.145Z,7.07
2023-05-02T21:22:47.524Z,7.23
2023-05-02T21:25:49.091Z,7.30
2023-05-02T21:28:52.774Z,7.60
2023-05-02T21:31:54.846Z,7.13
2023-05-02T21:34:57.045Z,7.45
2023-05-02T21:37:59.097Z,7.63
2023-05-02T21:41:05.322Z,7.50
2023-05-02T21:44:10.811Z,7.20
2023-05-02T21:47:12.855Z,7.68
2023-05-02T21:50:14.479Z,7.30
2023-05-02T21:53:16.774Z,6.87
2023-05-02T21:56:18.376Z,7.70
2023-05-02T21:59:21.276Z,7.20
2023-05-02T22:02:23.651Z,7.37
2023-05-02T22:05:26.774Z,8.25
2023-05-02T22:08:28.840Z,7.50
2023-05-02T22:11:32.118Z,7.10
2023-05-02T22:14:44.586Z,6.68
2023-05-02T22:17:48.390Z,6.45
2023-05-02T22:20:50.716Z,6.38
2023-05-02T22:23:52.385Z,6.30
2023-05-02T22:26:55.775Z,6.53
2023-05-02T22:29:58.131Z,6.32
2023-05-02T22:33:00.614Z,6.50
2023-05-02T22:36:02.716Z,6.47
2023-05-02T22:39:08.975Z,6.80
2023-05-02T22:42:10.655Z,7.18
2023-05-02T22:45:13.925Z,7.30
2023-05-02T22:48:15.607Z,7.10
2023-05-02T22:51:17.702Z,7.47
2023-05-02T22:54:21.356Z,7.80
2023-05-02T22:57:24.479Z,7.25
2023-05-02T23:00:27.036Z,7.32
2023-05-02T23:03:28.802Z,7.20
2023-05-02T23:06:31.550Z,7.90
2023-05-02T23:09:33.671Z,6.93
2023-05-02T23:12:35.693Z,6.95
2023-05-02T23:15:38.185Z,7.50
2023-05-02T23:18:39.993Z,7.00
2023-05-02T23:21:42.146Z,6.78
2023-05-02T23:24:46.831Z,7.00
2023-05-02T23:27:48.830Z,7.00
2023-05-02T23:30:51.136Z,7.03
2023-05-02T23:33:53.344Z,7.40
2023-05-02T23:36:55.550Z,6.72
2023-05-02T23:39:58.206Z,7.28
2023-05-02T23:43:00.647Z,7.47
2023-05-02T23:46:02.484Z,7.65
2023-05-02T23:49:04.172Z,7.13
2023-05-02T23:52:06.281Z,6.85
2023-05-02T23:55:10.684Z,6.40
2023-05-02T23:58:14.106Z,6.13
